sensor_id;sensor_type;location;lat;lon;timestamp;P1;durP1;ratioP1;P2;durP2;ratioP2
7471;SDS011;3777;48.722;8.110;2023-08-06T00:01:00;5.67;;;3.17;;
7471;SDS011;3777;48.722;8.110;2023-08-06T00:03:28;3.63;;;3.07;;
7471;SDS011;3777;48.722;8.110;2023-08-06T00:05:55;3.73;;;3.37;;
7471;SDS011;3777;48.722;8.110;2023-08-06T00:08:23;3.40;;;3.10;;
7471;SDS011;3777;48.722;8.110;2023-08-06T00:10:50;4.70;;;3.10;;
7471;SDS011;3777;48.722;8.110;2023-08-06T00:13:17;3.57;;;2.80;;
7471;SDS011;3777;48.722;8.110;2023-08-06T00:15:44;3.37;;;2.93;;
7471;SDS011;3777;48.722;8.110;2023-08-06T00:18:10;2.80;;;2.60;;
7471;SDS011;3777;48.722;8.110;2023-08-06T00:20:38;2.87;;;2.60;;
7471;SDS011;3777;48.722;8.110;2023-08-06T00:23:06;2.83;;;2.50;;
7471;SDS011;3777;48.722;8.110;2023-08-06T00:25:34;3.07;;;2.67;;
7471;SDS011;3777;48.722;8.110;2023-08-06T00:28:01;2.90;;;2.57;;
7471;SDS011;3777;48.722;8.110;2023-08-06T00:30:28;3.80;;;2.90;;
7471;SDS011;3777;48.722;8.110;2023-08-06T00:32:55;2.90;;;2.60;;
7471;SDS011;3777;48.722;8.110;2023-08-06T00:35:22;4.20;;;2.50;;
7471;SDS011;3777;48.722;8.110;2023-08-06T00:37:49;2.90;;;2.43;;
7471;SDS011;3777;48.722;8.110;2023-08-06T00:40:16;2.53;;;2.33;;
7471;SDS011;3777;48.722;8.110;2023-08-06T00:42:48;3.80;;;2.30;;
7471;SDS011;3777;48.722;8.110;2023-08-06T00:45:15;3.90;;;2.10;;
7471;SDS011;3777;48.722;8.110;2023-08-06T00:47:42;2.87;;;2.40;;
7471;SDS011;3777;48.722;8.110;2023-08-06T00:50:10;4.67;;;2.40;;
7471;SDS011;3777;48.722;8.110;2023-08-06T00:52:37;2.93;;;2.10;;
7471;SDS011;3777;48.722;8.110;2023-08-06T00:55:04;4.43;;;2.60;;
7471;SDS011;3777;48.722;8.110;2023-08-06T00:57:32;3.33;;;2.47;;
7471;SDS011;3777;48.722;8.110;2023-08-06T01:00:00;4.60;;;2.37;;
7471;SDS011;3777;48.722;8.110;2023-08-06T01:02:29;3.20;;;2.40;;
7471;SDS011;3777;48.722;8.110;2023-08-06T01:04:56;2.77;;;2.43;;
7471;SDS011;3777;48.722;8.110;2023-08-06T01:07:27;3.77;;;2.63;;
7471;SDS011;3777;48.722;8.110;2023-08-06T01:10:10;3.57;;;2.40;;
7471;SDS011;3777;48.722;8.110;2023-08-06T01:12:48;2.87;;;2.20;;
7471;SDS011;3777;48.722;8.110;2023-08-06T01:15:26;4.17;;;2.70;;
7471;SDS011;3777;48.722;8.110;2023-08-06T01:17:57;4.77;;;2.67;;
7471;SDS011;3777;48.722;8.110;2023-08-06T01:20:28;3.07;;;2.40;;
7471;SDS011;3777;48.722;8.110;2023-08-06T01:22:55;2.63;;;2.33;;
7471;SDS011;3777;48.722;8.110;2023-08-06T01:25:22;4.70;;;2.77;;
7471;SDS011;3777;48.722;8.110;2023-08-06T01:27:56;4.47;;;2.67;;
7471;SDS011;3777;48.722;8.110;2023-08-06T01:30:32;5.10;;;2.60;;
7471;SDS011;3777;48.722;8.110;2023-08-06T01:33:03;2.87;;;2.43;;
7471;SDS011;3777;48.722;8.110;2023-08-06T01:35:32;5.40;;;2.23;;
7471;SDS011;3777;48.722;8.110;2023-08-06T01:38:01;4.00;;;2.57;;
7471;SDS011;3777;48.722;8.110;2023-08-06T01:40:29;4.73;;;2.90;;
7471;SDS011;3777;48.722;8.110;2023-08-06T01:42:57;3.90;;;2.93;;
7471;SDS011;3777;48.722;8.110;2023-08-06T01:45:24;5.60;;;2.80;;
7471;SDS011;3777;48.722;8.110;2023-08-06T01:47:51;3.87;;;2.73;;
7471;SDS011;3777;48.722;8.110;2023-08-06T01:50:18;5.20;;;2.80;;
7471;SDS011;3777;48.722;8.110;2023-08-06T01:52:46;3.87;;;2.70;;
7471;SDS011;3777;48.722;8.110;2023-08-06T01:55:13;5.47;;;3.37;;
7471;SDS011;3777;48.722;8.110;2023-08-06T01:57:40;4.37;;;2.97;;
7471;SDS011;3777;48.722;8.110;2023-08-06T02:00:07;5.53;;;2.80;;
7471;SDS011;3777;48.722;8.110;2023-08-06T02:02:35;6.53;;;2.70;;
7471;SDS011;3777;48.722;8.110;2023-08-06T02:05:02;3.03;;;2.63;;
7471;SDS011;3777;48.722;8.110;2023-08-06T02:07:29;4.97;;;3.03;;
7471;SDS011;3777;48.722;8.110;2023-08-06T02:09:57;4.83;;;2.93;;
7471;SDS011;3777;48.722;8.110;2023-08-06T02:12:24;3.10;;;2.80;;
7471;SDS011;3777;48.722;8.110;2023-08-06T02:14:51;7.60;;;3.40;;
7471;SDS011;3777;48.722;8.110;2023-08-06T02:17:18;4.90;;;3.70;;
7471;SDS011;3777;48.722;8.110;2023-08-06T02:19:45;4.63;;;3.33;;
7471;SDS011;3777;48.722;8.110;2023-08-06T02:22:12;4.23;;;3.07;;
7471;SDS011;3777;48.722;8.110;2023-08-06T02:24:38;5.27;;;3.30;;
7471;SDS011;3777;48.722;8.110;2023-08-06T02:27:07;7.40;;;3.67;;
7471;SDS011;3777;48.722;8.110;2023-08-06T02:29:34;5.27;;;3.00;;
7471;SDS011;3777;48.722;8.110;2023-08-06T02:32:01;3.93;;;2.60;;
7471;SDS011;3777;48.722;8.110;2023-08-06T02:34:28;4.87;;;2.87;;
7471;SDS011;3777;48.722;8.110;2023-08-06T02:36:55;5.57;;;2.60;;
7471;SDS011;3777;48.722;8.110;2023-08-06T02:39:22;7.90;;;3.00;;
7471;SDS011;3777;48.722;8.110;2023-08-06T02:41:48;4.33;;;2.80;;
7471;SDS011;3777;48.722;8.110;2023-08-06T02:44:17;4.73;;;2.70;;
7471;SDS011;3777;48.722;8.110;2023-08-06T02:46:44;5.30;;;2.43;;
7471;SDS011;3777;48.722;8.110;2023-08-06T02:49:11;4.80;;;2.47;;
7471;SDS011;3777;48.722;8.110;2023-08-06T02:51:38;3.30;;;2.53;;
7471;SDS011;3777;48.722;8.110;2023-08-06T02:54:05;3.33;;;2.17;;
7471;SDS011;3777;48.722;8.110;2023-08-06T02:56:32;2.90;;;2.10;;
7471;SDS011;3777;48.722;8.110;2023-08-06T02:58:58;2.40;;;2.20;;
7471;SDS011;3777;48.722;8.110;2023-08-06T03:01:27;3.67;;;2.10;;
7471;SDS011;3777;48.722;8.110;2023-08-06T03:03:54;4.80;;;2.00;;
7471;SDS011;3777;48.722;8.110;2023-08-06T03:06:21;3.97;;;2.20;;
7471;SDS011;3777;48.722;8.110;2023-08-06T03:08:48;4.10;;;2.60;;
7471;SDS011;3777;48.722;8.110;2023-08-06T03:11:15;5.37;;;2.77;;
7471;SDS011;3777;48.722;8.110;2023-08-06T03:13:42;5.53;;;3.23;;
7471;SDS011;3777;48.722;8.110;2023-08-06T03:16:09;6.17;;;3.73;;
7471;SDS011;3777;48.722;8.110;2023-08-06T03:18:37;4.40;;;3.20;;
7471;SDS011;3777;48.722;8.110;2023-08-06T03:21:04;5.00;;;3.20;;
7471;SDS011;3777;48.722;8.110;2023-08-06T03:23:31;4.73;;;3.50;;
7471;SDS011;3777;48.722;8.110;2023-08-06T03:26:00;4.60;;;3.40;;
7471;SDS011;3777;48.722;8.110;2023-08-06T03:28:28;5.73;;;3.27;;
7471;SDS011;3777;48.722;8.110;2023-08-06T03:30:59;5.30;;;3.23;;
7471;SDS011;3777;48.722;8.110;2023-08-06T03:33:26;6.03;;;3.00;;
7471;SDS011;3777;48.722;8.110;2023-08-06T03:35:55;4.63;;;3.10;;
7471;SDS011;3777;48.722;8.110;2023-08-06T03:38:22;5.53;;;3.13;;
7471;SDS011;3777;48.722;8.110;2023-08-06T03:40:49;4.03;;;2.87;;
7471;SDS011;3777;48.722;8.110;2023-08-06T03:43:16;5.67;;;2.97;;
7471;SDS011;3777;48.722;8.110;2023-08-06T03:45:43;3.43;;;2.70;;
7471;SDS011;3777;48.722;8.110;2023-08-06T03:48:10;4.30;;;2.90;;
7471;SDS011;3777;48.722;8.110;2023-08-06T03:50:37;4.90;;;3.27;;
7471;SDS011;3777;48.722;8.110;2023-08-06T03:53:05;4.47;;;3.40;;
7471;SDS011;3777;48.722;8.110;2023-08-06T03:55:32;5.50;;;3.13;;
7471;SDS011;3777;48.722;8.110;2023-08-06T03:57:59;5.57;;;3.20;;
7471;SDS011;3777;48.722;8.110;2023-08-06T04:00:26;5.43;;;3.30;;
7471;SDS011;3777;48.722;8.110;2023-08-06T04:02:53;6.00;;;3.53;;
7471;SDS011;3777;48.722;8.110;2023-08-06T04:05:23;4.37;;;3.30;;
7471;SDS011;3777;48.722;8.110;2023-08-06T04:07:50;5.60;;;3.13;;
7471;SDS011;3777;48.722;8.110;2023-08-06T04:10:18;6.07;;;3.20;;
7471;SDS011;3777;48.722;8.110;2023-08-06T04:12:45;5.60;;;3.43;;
7471;SDS011;3777;48.722;8.110;2023-08-06T04:15:13;6.60;;;3.47;;
7471;SDS011;3777;48.722;8.110;2023-08-06T04:17:40;6.47;;;3.30;;
7471;SDS011;3777;48.722;8.110;2023-08-06T04:20:07;5.37;;;3.30;;
7471;SDS011;3777;48.722;8.110;2023-08-06T04:22:34;6.57;;;2.90;;
7471;SDS011;3777;48.722;8.110;2023-08-06T04:25:01;7.57;;;3.40;;
7471;SDS011;3777;48.722;8.110;2023-08-06T04:27:30;5.70;;;3.40;;
7471;SDS011;3777;48.722;8.110;2023-08-06T04:29:57;7.50;;;3.10;;
7471;SDS011;3777;48.722;8.110;2023-08-06T04:32:24;4.53;;;2.53;;
7471;SDS011;3777;48.722;8.110;2023-08-06T04:34:51;6.03;;;2.80;;
7471;SDS011;3777;48.722;8.110;2023-08-06T04:37:18;3.43;;;2.33;;
7471;SDS011;3777;48.722;8.110;2023-08-06T04:39:45;3.63;;;2.40;;
7471;SDS011;3777;48.722;8.110;2023-08-06T04:42:12;5.93;;;2.60;;
7471;SDS011;3777;48.722;8.110;2023-08-06T04:44:40;5.70;;;2.67;;
7471;SDS011;3777;48.722;8.110;2023-08-06T04:47:07;6.27;;;2.47;;
7471;SDS011;3777;48.722;8.110;2023-08-06T04:49:34;5.57;;;2.80;;
7471;SDS011;3777;48.722;8.110;2023-08-06T04:52:01;6.30;;;2.97;;
7471;SDS011;3777;48.722;8.110;2023-08-06T04:54:28;4.83;;;2.50;;
7471;SDS011;3777;48.722;8.110;2023-08-06T04:56:55;5.03;;;2.53;;
7471;SDS011;3777;48.722;8.110;2023-08-06T04:59:22;4.03;;;2.10;;
7471;SDS011;3777;48.722;8.110;2023-08-06T05:01:51;6.60;;;2.33;;
7471;SDS011;3777;48.722;8.110;2023-08-06T05:04:18;4.43;;;2.30;;
7471;SDS011;3777;48.722;8.110;2023-08-06T05:06:45;4.83;;;2.13;;
7471;SDS011;3777;48.722;8.110;2023-08-06T05:09:11;4.53;;;2.20;;
7471;SDS011;3777;48.722;8.110;2023-08-06T05:11:38;4.40;;;2.07;;
7471;SDS011;3777;48.722;8.110;2023-08-06T05:14:05;3.70;;;1.70;;
7471;SDS011;3777;48.722;8.110;2023-08-06T05:16:32;3.77;;;1.83;;
7471;SDS011;3777;48.722;8.110;2023-08-06T05:19:00;2.23;;;1.50;;
7471;SDS011;3777;48.722;8.110;2023-08-06T05:21:27;2.13;;;1.47;;
7471;SDS011;3777;48.722;8.110;2023-08-06T05:23:54;2.23;;;1.30;;
7471;SDS011;3777;48.722;8.110;2023-08-06T05:26:21;3.40;;;1.70;;
7471;SDS011;3777;48.722;8.110;2023-08-06T05:28:48;3.77;;;1.30;;
7471;SDS011;3777;48.722;8.110;2023-08-06T05:31:15;3.17;;;1.27;;
7471;SDS011;3777;48.722;8.110;2023-08-06T05:33:42;2.37;;;1.10;;
7471;SDS011;3777;48.722;8.110;2023-08-06T05:36:10;1.43;;;1.20;;
7471;SDS011;3777;48.722;8.110;2023-08-06T05:38:37;3.23;;;1.50;;
7471;SDS011;3777;48.722;8.110;2023-08-06T05:41:04;2.00;;;1.30;;
7471;SDS011;3777;48.722;8.110;2023-08-06T05:43:31;1.37;;;1.20;;
7471;SDS011;3777;48.722;8.110;2023-08-06T05:45:58;2.10;;;1.20;;
7471;SDS011;3777;48.722;8.110;2023-08-06T05:48:25;2.27;;;1.20;;
7471;SDS011;3777;48.722;8.110;2023-08-06T05:50:53;2.67;;;1.40;;
7471;SDS011;3777;48.722;8.110;2023-08-06T05:53:21;3.77;;;1.40;;
7471;SDS011;3777;48.722;8.110;2023-08-06T05:55:48;2.83;;;1.47;;
7471;SDS011;3777;48.722;8.110;2023-08-06T05:58:15;1.57;;;1.20;;
7471;SDS011;3777;48.722;8.110;2023-08-06T06:00:42;1.67;;;1.40;;
7471;SDS011;3777;48.722;8.110;2023-08-06T06:03:09;2.30;;;1.50;;
7471;SDS011;3777;48.722;8.110;2023-08-06T06:05:37;1.73;;;1.60;;
7471;SDS011;3777;48.722;8.110;2023-08-06T06:08:05;2.90;;;1.70;;
7471;SDS011;3777;48.722;8.110;2023-08-06T06:10:33;1.90;;;1.30;;
7471;SDS011;3777;48.722;8.110;2023-08-06T06:13:01;2.87;;;1.63;;
7471;SDS011;3777;48.722;8.110;2023-08-06T06:15:28;2.83;;;1.70;;
7471;SDS011;3777;48.722;8.110;2023-08-06T06:17:55;2.23;;;1.57;;
7471;SDS011;3777;48.722;8.110;2023-08-06T06:20:22;3.33;;;1.73;;
7471;SDS011;3777;48.722;8.110;2023-08-06T06:22:49;3.77;;;1.60;;
7471;SDS011;3777;48.722;8.110;2023-08-06T06:25:16;3.70;;;1.90;;
7471;SDS011;3777;48.722;8.110;2023-08-06T06:27:45;4.03;;;1.73;;
7471;SDS011;3777;48.722;8.110;2023-08-06T06:30:12;3.70;;;1.60;;
7471;SDS011;3777;48.722;8.110;2023-08-06T06:32:39;4.40;;;1.67;;
7471;SDS011;3777;48.722;8.110;2023-08-06T06:35:07;2.60;;;1.53;;
7471;SDS011;3777;48.722;8.110;2023-08-06T06:37:34;2.37;;;1.53;;
7471;SDS011;3777;48.722;8.110;2023-08-06T06:40:01;3.63;;;1.63;;
7471;SDS011;3777;48.722;8.110;2023-08-06T06:42:31;3.70;;;1.80;;
7471;SDS011;3777;48.722;8.110;2023-08-06T06:45:00;3.80;;;1.70;;
7471;SDS011;3777;48.722;8.110;2023-08-06T06:47:26;3.87;;;1.70;;
7471;SDS011;3777;48.722;8.110;2023-08-06T06:49:53;2.53;;;1.40;;
7471;SDS011;3777;48.722;8.110;2023-08-06T06:52:20;4.57;;;1.70;;
7471;SDS011;3777;48.722;8.110;2023-08-06T06:54:47;3.53;;;1.60;;
7471;SDS011;3777;48.722;8.110;2023-08-06T06:57:14;4.60;;;1.50;;
7471;SDS011;3777;48.722;8.110;2023-08-06T06:59:41;3.10;;;1.53;;
7471;SDS011;3777;48.722;8.110;2023-08-06T07:02:10;3.17;;;1.50;;
7471;SDS011;3777;48.722;8.110;2023-08-06T07:04:37;4.27;;;1.57;;
7471;SDS011;3777;48.722;8.110;2023-08-06T07:07:04;2.90;;;1.50;;
7471;SDS011;3777;48.722;8.110;2023-08-06T07:09:31;3.40;;;1.70;;
7471;SDS011;3777;48.722;8.110;2023-08-06T07:11:57;3.13;;;1.23;;
7471;SDS011;3777;48.722;8.110;2023-08-06T07:14:25;4.97;;;1.70;;
7471;SDS011;3777;48.722;8.110;2023-08-06T07:16:52;5.37;;;1.90;;
7471;SDS011;3777;48.722;8.110;2023-08-06T07:19:20;4.53;;;1.63;;
7471;SDS011;3777;48.722;8.110;2023-08-06T07:21:47;3.47;;;1.67;;
7471;SDS011;3777;48.722;8.110;2023-08-06T07:24:14;2.70;;;1.50;;
7471;SDS011;3777;48.722;8.110;2023-08-06T07:26:41;3.03;;;1.53;;
7471;SDS011;3777;48.722;8.110;2023-08-06T07:29:08;3.27;;;1.50;;
7471;SDS011;3777;48.722;8.110;2023-08-06T07:31:35;3.13;;;1.67;;
7471;SDS011;3777;48.722;8.110;2023-08-06T07:34:02;3.70;;;1.73;;
7471;SDS011;3777;48.722;8.110;2023-08-06T07:36:30;3.33;;;1.73;;
7471;SDS011;3777;48.722;8.110;2023-08-06T07:38:57;3.10;;;1.53;;
7471;SDS011;3777;48.722;8.110;2023-08-06T07:41:24;3.13;;;1.60;;
7471;SDS011;3777;48.722;8.110;2023-08-06T07:43:51;4.40;;;1.63;;
7471;SDS011;3777;48.722;8.110;2023-08-06T07:46:18;3.43;;;1.43;;
7471;SDS011;3777;48.722;8.110;2023-08-06T07:48:45;7.47;;;1.90;;
7471;SDS011;3777;48.722;8.110;2023-08-06T07:51:12;6.80;;;2.10;;
7471;SDS011;3777;48.722;8.110;2023-08-06T07:53:40;3.17;;;1.50;;
7471;SDS011;3777;48.722;8.110;2023-08-06T07:56:07;5.07;;;1.80;;
7471;SDS011;3777;48.722;8.110;2023-08-06T07:58:34;4.00;;;1.77;;
7471;SDS011;3777;48.722;8.110;2023-08-06T08:01:01;4.03;;;1.50;;
7471;SDS011;3777;48.722;8.110;2023-08-06T08:03:28;4.17;;;1.57;;
7471;SDS011;3777;48.722;8.110;2023-08-06T08:05:55;3.37;;;1.40;;
7471;SDS011;3777;48.722;8.110;2023-08-06T08:08:23;2.80;;;1.40;;
7471;SDS011;3777;48.722;8.110;2023-08-06T08:10:52;3.27;;;1.60;;
7471;SDS011;3777;48.722;8.110;2023-08-06T08:13:20;5.03;;;1.67;;
7471;SDS011;3777;48.722;8.110;2023-08-06T08:15:47;3.03;;;1.60;;
7471;SDS011;3777;48.722;8.110;2023-08-06T08:18:14;4.93;;;1.60;;
7471;SDS011;3777;48.722;8.110;2023-08-06T08:20:41;4.10;;;1.40;;
7471;SDS011;3777;48.722;8.110;2023-08-06T08:23:07;4.60;;;1.83;;
7471;SDS011;3777;48.722;8.110;2023-08-06T08:25:34;4.80;;;1.43;;
7471;SDS011;3777;48.722;8.110;2023-08-06T08:28:03;2.87;;;1.60;;
7471;SDS011;3777;48.722;8.110;2023-08-06T08:30:30;6.80;;;2.47;;
7471;SDS011;3777;48.722;8.110;2023-08-06T08:32:57;3.83;;;1.60;;
7471;SDS011;3777;48.722;8.110;2023-08-06T08:35:26;6.70;;;1.87;;
7471;SDS011;3777;48.722;8.110;2023-08-06T08:37:53;4.73;;;1.67;;
7471;SDS011;3777;48.722;8.110;2023-08-06T08:40:21;4.47;;;1.73;;
7471;SDS011;3777;48.722;8.110;2023-08-06T08:42:52;3.83;;;1.70;;
7471;SDS011;3777;48.722;8.110;2023-08-06T08:45:22;4.23;;;1.50;;
7471;SDS011;3777;48.722;8.110;2023-08-06T08:47:49;4.60;;;1.60;;
7471;SDS011;3777;48.722;8.110;2023-08-06T08:50:17;4.53;;;1.60;;
7471;SDS011;3777;48.722;8.110;2023-08-06T08:52:44;4.93;;;1.70;;
7471;SDS011;3777;48.722;8.110;2023-08-06T08:55:14;4.50;;;1.50;;
7471;SDS011;3777;48.722;8.110;2023-08-06T08:57:41;4.30;;;1.40;;
7471;SDS011;3777;48.722;8.110;2023-08-06T09:00:09;7.43;;;2.00;;
7471;SDS011;3777;48.722;8.110;2023-08-06T09:02:37;3.53;;;1.87;;
7471;SDS011;3777;48.722;8.110;2023-08-06T09:05:05;4.93;;;1.90;;
7471;SDS011;3777;48.722;8.110;2023-08-06T09:07:35;5.07;;;1.63;;
7471;SDS011;3777;48.722;8.110;2023-08-06T09:10:07;5.13;;;2.00;;
7471;SDS011;3777;48.722;8.110;2023-08-06T09:12:37;3.20;;;1.60;;
7471;SDS011;3777;48.722;8.110;2023-08-06T09:15:04;2.50;;;1.70;;
7471;SDS011;3777;48.722;8.110;2023-08-06T09:17:32;4.30;;;1.60;;
7471;SDS011;3777;48.722;8.110;2023-08-06T09:20:00;2.93;;;1.60;;
7471;SDS011;3777;48.722;8.110;2023-08-06T09:22:36;3.93;;;1.33;;
7471;SDS011;3777;48.722;8.110;2023-08-06T09:25:04;2.40;;;1.60;;
7471;SDS011;3777;48.722;8.110;2023-08-06T09:27:35;2.70;;;1.40;;
7471;SDS011;3777;48.722;8.110;2023-08-06T09:30:02;3.77;;;1.40;;
7471;SDS011;3777;48.722;8.110;2023-08-06T09:32:36;2.97;;;1.60;;
7471;SDS011;3777;48.722;8.110;2023-08-06T09:35:16;4.43;;;1.60;;
7471;SDS011;3777;48.722;8.110;2023-08-06T09:37:44;1.77;;;1.20;;
7471;SDS011;3777;48.722;8.110;2023-08-06T09:40:28;1.50;;;1.10;;
7471;SDS011;3777;48.722;8.110;2023-08-06T09:42:56;2.10;;;1.40;;
7471;SDS011;3777;48.722;8.110;2023-08-06T09:45:28;2.77;;;1.30;;
7471;SDS011;3777;48.722;8.110;2023-08-06T09:47:59;3.57;;;1.50;;
7471;SDS011;3777;48.722;8.110;2023-08-06T09:50:31;1.37;;;1.20;;
7471;SDS011;3777;48.722;8.110;2023-08-06T09:52:58;1.70;;;1.30;;
7471;SDS011;3777;48.722;8.110;2023-08-06T09:55:26;1.87;;;1.20;;
7471;SDS011;3777;48.722;8.110;2023-08-06T09:57:54;2.50;;;1.10;;
7471;SDS011;3777;48.722;8.110;2023-08-06T10:00:21;2.83;;;1.10;;
7471;SDS011;3777;48.722;8.110;2023-08-06T10:02:49;2.73;;;1.00;;
7471;SDS011;3777;48.722;8.110;2023-08-06T10:05:19;1.77;;;1.30;;
7471;SDS011;3777;48.722;8.110;2023-08-06T10:07:50;2.77;;;1.20;;
7471;SDS011;3777;48.722;8.110;2023-08-06T10:10:17;2.50;;;1.33;;
7471;SDS011;3777;48.722;8.110;2023-08-06T10:12:46;2.00;;;1.40;;
7471;SDS011;3777;48.722;8.110;2023-08-06T10:15:16;1.83;;;1.50;;
7471;SDS011;3777;48.722;8.110;2023-08-06T10:17:47;1.80;;;1.70;;
7471;SDS011;3777;48.722;8.110;2023-08-06T10:20:16;1.70;;;1.60;;
7471;SDS011;3777;48.722;8.110;2023-08-06T10:22:46;2.77;;;1.60;;
7471;SDS011;3777;48.722;8.110;2023-08-06T10:25:30;2.97;;;1.83;;
7471;SDS011;3777;48.722;8.110;2023-08-06T10:27:58;1.97;;;1.73;;
7471;SDS011;3777;48.722;8.110;2023-08-06T10:30:26;2.87;;;1.80;;
7471;SDS011;3777;48.722;8.110;2023-08-06T10:32:56;2.23;;;1.77;;
7471;SDS011;3777;48.722;8.110;2023-08-06T10:35:29;2.17;;;1.97;;
7471;SDS011;3777;48.722;8.110;2023-08-06T10:38:04;3.07;;;2.10;;
7471;SDS011;3777;48.722;8.110;2023-08-06T10:40:33;3.67;;;2.10;;
7471;SDS011;3777;48.722;8.110;2023-08-06T10:43:00;2.50;;;2.20;;
7471;SDS011;3777;48.722;8.110;2023-08-06T10:45:27;2.80;;;2.33;;
7471;SDS011;3777;48.722;8.110;2023-08-06T10:47:55;2.93;;;2.17;;
7471;SDS011;3777;48.722;8.110;2023-08-06T10:50:23;3.67;;;2.27;;
7471;SDS011;3777;48.722;8.110;2023-08-06T10:52:51;4.77;;;2.63;;
7471;SDS011;3777;48.722;8.110;2023-08-06T10:55:28;3.33;;;2.20;;
7471;SDS011;3777;48.722;8.110;2023-08-06T10:57:56;4.50;;;2.53;;
7471;SDS011;3777;48.722;8.110;2023-08-06T11:00:25;3.57;;;2.20;;
7471;SDS011;3777;48.722;8.110;2023-08-06T11:02:54;4.37;;;2.83;;
7471;SDS011;3777;48.722;8.110;2023-08-06T11:05:21;4.53;;;2.67;;
7471;SDS011;3777;48.722;8.110;2023-08-06T11:07:48;3.73;;;2.50;;
7471;SDS011;3777;48.722;8.110;2023-08-06T11:10:16;6.10;;;2.60;;
7471;SDS011;3777;48.722;8.110;2023-08-06T11:12:45;3.63;;;2.43;;
7471;SDS011;3777;48.722;8.110;2023-08-06T11:15:12;5.40;;;2.50;;
7471;SDS011;3777;48.722;8.110;2023-08-06T11:17:39;3.30;;;2.50;;
7471;SDS011;3777;48.722;8.110;2023-08-06T11:20:07;3.10;;;2.40;;
7471;SDS011;3777;48.722;8.110;2023-08-06T11:22:35;2.60;;;2.30;;
7471;SDS011;3777;48.722;8.110;2023-08-06T11:25:03;3.97;;;2.37;;
7471;SDS011;3777;48.722;8.110;2023-08-06T11:27:31;4.73;;;2.70;;
7471;SDS011;3777;48.722;8.110;2023-08-06T11:30:00;3.27;;;2.27;;
7471;SDS011;3777;48.722;8.110;2023-08-06T11:32:27;4.27;;;2.37;;
7471;SDS011;3777;48.722;8.110;2023-08-06T11:34:54;5.23;;;2.50;;
7471;SDS011;3777;48.722;8.110;2023-08-06T11:37:22;4.80;;;2.10;;
7471;SDS011;3777;48.722;8.110;2023-08-06T11:39:50;3.30;;;2.20;;
7471;SDS011;3777;48.722;8.110;2023-08-06T11:42:18;2.57;;;2.13;;
7471;SDS011;3777;48.722;8.110;2023-08-06T11:44:45;3.50;;;2.40;;
7471;SDS011;3777;48.722;8.110;2023-08-06T11:47:14;2.73;;;1.63;;
7471;SDS011;3777;48.722;8.110;2023-08-06T11:49:42;2.17;;;1.70;;
7471;SDS011;3777;48.722;8.110;2023-08-06T11:52:15;2.57;;;1.73;;
7471;SDS011;3777;48.722;8.110;2023-08-06T11:54:44;2.37;;;1.70;;
7471;SDS011;3777;48.722;8.110;2023-08-06T11:57:12;1.90;;;1.40;;
7471;SDS011;3777;48.722;8.110;2023-08-06T11:59:39;2.80;;;1.43;;
7471;SDS011;3777;48.722;8.110;2023-08-06T12:02:07;1.50;;;1.40;;
7471;SDS011;3777;48.722;8.110;2023-08-06T12:07:30;2.43;;;1.50;;
7471;SDS011;3777;48.722;8.110;2023-08-06T12:09:58;1.87;;;1.50;;
7471;SDS011;3777;48.722;8.110;2023-08-06T12:12:28;2.73;;;1.33;;
7471;SDS011;3777;48.722;8.110;2023-08-06T12:14:55;1.90;;;1.50;;
7471;SDS011;3777;48.722;8.110;2023-08-06T12:17:22;2.37;;;1.40;;
7471;SDS011;3777;48.722;8.110;2023-08-06T12:19:49;3.50;;;1.60;;
7471;SDS011;3777;48.722;8.110;2023-08-06T12:22:17;1.50;;;1.40;;
7471;SDS011;3777;48.722;8.110;2023-08-06T12:24:45;3.23;;;1.77;;
7471;SDS011;3777;48.722;8.110;2023-08-06T12:27:13;2.27;;;1.70;;
7471;SDS011;3777;48.722;8.110;2023-08-06T12:29:40;1.50;;;1.40;;
7471;SDS011;3777;48.722;8.110;2023-08-06T12:32:12;2.73;;;1.30;;
7471;SDS011;3777;48.722;8.110;2023-08-06T12:34:39;1.83;;;1.13;;
7471;SDS011;3777;48.722;8.110;2023-08-06T12:37:07;1.60;;;1.17;;
7471;SDS011;3777;48.722;8.110;2023-08-06T12:39:36;1.83;;;1.20;;
7471;SDS011;3777;48.722;8.110;2023-08-06T12:42:04;2.47;;;1.40;;
7471;SDS011;3777;48.722;8.110;2023-08-06T12:44:32;2.07;;;1.10;;
7471;SDS011;3777;48.722;8.110;2023-08-06T12:46:59;2.50;;;1.20;;
7471;SDS011;3777;48.722;8.110;2023-08-06T12:49:25;1.10;;;1.00;;
7471;SDS011;3777;48.722;8.110;2023-08-06T12:51:53;2.63;;;1.33;;
7471;SDS011;3777;48.722;8.110;2023-08-06T12:54:21;2.80;;;1.30;;
7471;SDS011;3777;48.722;8.110;2023-08-06T12:56:50;1.90;;;1.20;;
7471;SDS011;3777;48.722;8.110;2023-08-06T12:59:17;3.33;;;1.40;;
7471;SDS011;3777;48.722;8.110;2023-08-06T13:01:44;2.33;;;1.23;;
7471;SDS011;3777;48.722;8.110;2023-08-06T13:04:13;2.27;;;1.40;;
7471;SDS011;3777;48.722;8.110;2023-08-06T13:06:40;1.87;;;1.40;;
7471;SDS011;3777;48.722;8.110;2023-08-06T13:09:07;1.90;;;1.20;;
7471;SDS011;3777;48.722;8.110;2023-08-06T13:11:34;1.27;;;1.13;;
7471;SDS011;3777;48.722;8.110;2023-08-06T13:14:08;1.73;;;1.10;;
7471;SDS011;3777;48.722;8.110;2023-08-06T13:16:35;2.20;;;1.37;;
7471;SDS011;3777;48.722;8.110;2023-08-06T13:19:04;1.60;;;1.50;;
7471;SDS011;3777;48.722;8.110;2023-08-06T13:21:32;2.07;;;1.40;;
7471;SDS011;3777;48.722;8.110;2023-08-06T13:24:00;2.30;;;1.20;;
7471;SDS011;3777;48.722;8.110;2023-08-06T13:26:27;1.50;;;1.30;;
7471;SDS011;3777;48.722;8.110;2023-08-06T13:28:56;1.77;;;1.20;;
7471;SDS011;3777;48.722;8.110;2023-08-06T13:31:25;2.33;;;1.30;;
7471;SDS011;3777;48.722;8.110;2023-08-06T13:33:52;2.00;;;1.10;;
7471;SDS011;3777;48.722;8.110;2023-08-06T13:36:20;3.87;;;1.27;;
7471;SDS011;3777;48.722;8.110;2023-08-06T13:38:47;1.77;;;1.23;;
7471;SDS011;3777;48.722;8.110;2023-08-06T13:41:14;1.20;;;1.00;;
7471;SDS011;3777;48.722;8.110;2023-08-06T13:43:41;1.73;;;1.20;;
7471;SDS011;3777;48.722;8.110;2023-08-06T13:46:09;2.13;;;1.30;;
7471;SDS011;3777;48.722;8.110;2023-08-06T13:48:41;2.30;;;1.40;;
7471;SDS011;3777;48.722;8.110;2023-08-06T13:51:08;1.70;;;1.20;;
7471;SDS011;3777;48.722;8.110;2023-08-06T13:53:36;2.23;;;1.30;;
7471;SDS011;3777;48.722;8.110;2023-08-06T13:56:04;1.93;;;1.27;;
7471;SDS011;3777;48.722;8.110;2023-08-06T13:58:31;1.33;;;1.20;;
7471;SDS011;3777;48.722;8.110;2023-08-06T14:00:58;1.33;;;1.15;;
7471;SDS011;3777;48.722;8.110;2023-08-06T14:03:25;2.37;;;1.20;;
7471;SDS011;3777;48.722;8.110;2023-08-06T14:05:53;2.90;;;1.30;;
7471;SDS011;3777;48.722;8.110;2023-08-06T14:08:21;2.53;;;1.30;;
7471;SDS011;3777;48.722;8.110;2023-08-06T14:10:48;2.93;;;1.20;;
7471;SDS011;3777;48.722;8.110;2023-08-06T14:13:15;2.27;;;1.13;;
7471;SDS011;3777;48.722;8.110;2023-08-06T14:15:43;2.23;;;1.27;;
7471;SDS011;3777;48.722;8.110;2023-08-06T14:18:12;1.87;;;1.23;;
7471;SDS011;3777;48.722;8.110;2023-08-06T14:20:38;3.20;;;1.27;;
7471;SDS011;3777;48.722;8.110;2023-08-06T14:23:07;2.00;;;1.23;;
7471;SDS011;3777;48.722;8.110;2023-08-06T14:25:34;1.67;;;1.20;;
7471;SDS011;3777;48.722;8.110;2023-08-06T14:28:02;1.83;;;1.20;;
7471;SDS011;3777;48.722;8.110;2023-08-06T14:30:29;1.63;;;1.23;;
7471;SDS011;3777;48.722;8.110;2023-08-06T14:32:56;2.38;;;1.40;;
7471;SDS011;3777;48.722;8.110;2023-08-06T14:35:23;1.60;;;1.20;;
7471;SDS011;3777;48.722;8.110;2023-08-06T14:37:50;1.83;;;1.30;;
7471;SDS011;3777;48.722;8.110;2023-08-06T14:40:19;1.53;;;1.30;;
7471;SDS011;3777;48.722;8.110;2023-08-06T14:42:46;2.70;;;1.27;;
7471;SDS011;3777;48.722;8.110;2023-08-06T14:45:13;2.13;;;1.33;;
7471;SDS011;3777;48.722;8.110;2023-08-06T14:47:40;1.87;;;1.30;;
7471;SDS011;3777;48.722;8.110;2023-08-06T14:50:07;3.03;;;1.40;;
7471;SDS011;3777;48.722;8.110;2023-08-06T14:52:34;2.35;;;1.20;;
7471;SDS011;3777;48.722;8.110;2023-08-06T14:55:01;1.40;;;1.05;;
7471;SDS011;3777;48.722;8.110;2023-08-06T14:57:30;2.67;;;1.35;;
7471;SDS011;3777;48.722;8.110;2023-08-06T14:59:57;3.72;;;1.35;;
7471;SDS011;3777;48.722;8.110;2023-08-06T15:02:25;2.38;;;1.10;;
7471;SDS011;3777;48.722;8.110;2023-08-06T15:04:52;2.65;;;1.63;;
7471;SDS011;3777;48.722;8.110;2023-08-06T15:07:19;3.63;;;1.45;;
7471;SDS011;3777;48.722;8.110;2023-08-06T15:09:46;3.90;;;1.23;;
7471;SDS011;3777;48.722;8.110;2023-08-06T15:12:13;3.13;;;1.20;;
7471;SDS011;3777;48.722;8.110;2023-08-06T15:14:43;1.27;;;1.00;;
7471;SDS011;3777;48.722;8.110;2023-08-06T15:17:10;1.90;;;1.20;;
7471;SDS011;3777;48.722;8.110;2023-08-06T15:19:37;2.87;;;1.30;;
7471;SDS011;3777;48.722;8.110;2023-08-06T15:22:04;1.50;;;1.20;;